createdAt,value
2023-03-07T00:01:30.989Z,2.11
2023-03-07T00:03:59.142Z,2.09
2023-03-07T00:06:26.203Z,2.08
2023-03-07T00:08:54.911Z,2.10
2023-03-07T00:11:21.911Z,2.14
2023-03-07T00:13:48.912Z,2.14
2023-03-07T00:16:18.198Z,2.16
2023-03-07T00:18:45.061Z,2.18
2023-03-07T00:21:15.909Z,2.19
2023-03-07T00:23:44.022Z,2.22
2023-03-07T00:26:19.477Z,2.22
2023-03-07T00:28:47.929Z,2.20
2023-03-07T00:31:14.879Z,2.24
2023-03-07T00:33:41.781Z,2.27
2023-03-07T00:36:12.608Z,2.28
2023-03-07T00:38:42.589Z,2.28
2023-03-07T00:41:19.481Z,2.30
2023-03-07T00:43:47.141Z,2.31
2023-03-07T00:46:17.624Z,2.27
2023-03-07T00:48:47.317Z,2.27
2023-03-07T00:51:20.011Z,2.26
2023-03-07T00:53:46.844Z,2.28
2023-03-07T00:56:19.621Z,2.27
2023-03-07T00:58:46.668Z,2.23
2023-03-07T01:01:15.996Z,2.22
2023-03-07T01:03:43.123Z,2.22
2023-03-07T01:06:14.613Z,2.21
2023-03-07T01:08:43.610Z,2.22
2023-03-07T01:11:10.688Z,2.24
2023-03-07T01:13:37.954Z,2.23
2023-03-07T01:16:25.315Z,2.23
2023-03-07T01:18:55.307Z,2.20
2023-03-07T01:21:27.873Z,2.23
2023-03-07T01:23:54.878Z,2.24
2023-03-07T01:26:29.869Z,2.23
2023-03-07T01:28:58.776Z,2.20
2023-03-07T01:31:26.213Z,2.17
2023-03-07T01:33:53.755Z,2.17
2023-03-07T01:36:28.390Z,2.15
2023-03-07T01:38:59.966Z,2.18
2023-03-07T01:41:29.713Z,2.15
2023-03-07T01:44:00.189Z,2.10
2023-03-07T01:46:53.545Z,2.08
2023-03-07T01:49:26.158Z,2.08
2023-03-07T01:52:14.454Z,2.10
2023-03-07T01:54:48.922Z,2.10
2023-03-07T01:57:24.893Z,2.08
2023-03-07T01:59:56.006Z,2.07
2023-03-07T02:02:23.431Z,2.05
2023-03-07T02:04:59.333Z,2.08
2023-03-07T02:07:30.679Z,2.10
2023-03-07T02:09:58.313Z,2.10
2023-03-07T02:12:24.763Z,2.10
2023-03-07T02:14:52.409Z,2.05
2023-03-07T02:17:19.907Z,2.09
2023-03-07T02:20:25.679Z,2.09
2023-03-07T02:22:54.611Z,2.05
2023-03-07T02:25:33.583Z,1.99
2023-03-07T02:28:04.412Z,2.02
2023-03-07T02:30:30.949Z,2.02
2023-03-07T02:32:57.950Z,2.04
2023-03-07T02:35:26.123Z,2.02
2023-03-07T02:37:57.343Z,1.99
2023-03-07T02:40:26.802Z,2.02
2023-03-07T02:42:57.388Z,2.00
2023-03-07T02:45:23.973Z,2.00
2023-03-07T02:47:50.463Z,1.96
2023-03-07T02:50:17.821Z,1.94
2023-03-07T02:52:44.768Z,1.94
2023-03-07T02:55:11.328Z,1.94
2023-03-07T02:57:37.770Z,1.99
2023-03-07T03:00:10.213Z,1.96
2023-03-07T03:02:36.702Z,1.98
2023-03-07T03:05:04.459Z,1.98
2023-03-07T03:07:31.044Z,2.00
2023-03-07T03:09:57.905Z,1.97
2023-03-07T03:12:24.356Z,1.95
2023-03-07T03:14:50.883Z,1.94
2023-03-07T03:17:17.617Z,1.90
2023-03-07T03:19:44.210Z,1.91
2023-03-07T03:22:11.029Z,1.95
2023-03-07T03:24:42.303Z,1.95
2023-03-07T03:27:09.344Z,1.99
2023-03-07T03:29:36.072Z,2.00
2023-03-07T03:32:02.709Z,1.99
2023-03-07T03:34:29.776Z,1.99
2023-03-07T03:36:56.290Z,2.01
2023-03-07T03:39:22.874Z,2.04
2023-03-07T03:41:49.363Z,2.03
2023-03-07T03:44:15.808Z,2.02
2023-03-07T03:46:42.320Z,2.04
2023-03-07T03:49:12.467Z,2.04
2023-03-07T03:51:38.982Z,2.03
2023-03-07T03:54:05.509Z,1.99
2023-03-07T03:56:33.933Z,2.02
2023-03-07T03:59:00.407Z,2.04
2023-03-07T04:01:31.467Z,2.01
2023-03-07T04:03:58.393Z,1.98
2023-03-07T04:06:30.802Z,2.01
2023-03-07T04:08:57.528Z,2.03
2023-03-07T04:11:25.288Z,2.04
2023-03-07T04:13:52.419Z,2.07
2023-03-07T04:16:20.197Z,2.13
2023-03-07T04:18:46.764Z,2.12
2023-03-07T04:21:13.276Z,2.10
2023-03-07T04:23:39.862Z,2.11
2023-03-07T04:26:08.184Z,2.11
2023-03-07T04:28:46.620Z,2.11
2023-03-07T04:31:21.978Z,2.13
2023-03-07T04:33:49.602Z,2.13
2023-03-07T04:36:16.634Z,2.12
2023-03-07T04:38:43.754Z,2.13
2023-03-07T04:41:18.854Z,2.13
2023-03-07T04:43:45.629Z,2.13
2023-03-07T04:46:14.898Z,2.15
2023-03-07T04:48:41.484Z,2.15
2023-03-07T04:51:07.988Z,2.17
2023-03-07T04:53:34.677Z,2.14
2023-03-07T04:56:02.779Z,2.13
2023-03-07T04:58:30.445Z,2.17
2023-03-07T05:00:57.781Z,2.20
2023-03-07T05:03:27.228Z,2.20
2023-03-07T05:05:54.213Z,2.23
2023-03-07T05:08:21.946Z,2.21
2023-03-07T05:10:48.522Z,2.23
2023-03-07T05:13:15.046Z,2.24
2023-03-07T05:15:41.507Z,2.27
2023-03-07T05:18:08.035Z,2.29
2023-03-07T05:20:34.763Z,2.29
2023-03-07T05:23:01.254Z,2.28
2023-03-07T05:25:28.540Z,2.29
2023-03-07T05:27:55.117Z,2.32
2023-03-07T05:30:22.251Z,2.32
2023-03-07T05:32:48.845Z,2.29
2023-03-07T05:35:16.082Z,2.29
2023-03-07T05:37:42.646Z,2.29
2023-03-07T05:40:10.548Z,2.28
2023-03-07T05:42:37.536Z,2.28
2023-03-07T05:45:05.899Z,2.26
2023-03-07T05:47:32.613Z,2.27
2023-03-07T05:49:59.122Z,2.31
2023-03-07T05:52:29.124Z,2.32
2023-03-07T05:54:55.671Z,2.34
2023-03-07T05:57:25.520Z,2.34
2023-03-07T05:59:52.275Z,2.45
2023-03-07T06:02:19.795Z,2.44
2023-03-07T06:04:46.962Z,2.42
2023-03-07T06:07:13.463Z,2.42
2023-03-07T06:09:39.941Z,2.45
2023-03-07T06:12:06.700Z,2.46
2023-03-07T06:14:33.189Z,2.46
2023-03-07T06:16:59.688Z,2.51
2023-03-07T06:19:26.263Z,2.50
2023-03-07T06:21:52.739Z,2.53
2023-03-07T06:24:19.286Z,2.55
2023-03-07T06:26:45.811Z,2.58
2023-03-07T06:29:12.366Z,2.56
2023-03-07T06:31:41.949Z,2.57
2023-03-07T06:34:08.726Z,2.56
2023-03-07T06:36:35.358Z,2.56
2023-03-07T06:39:01.914Z,2.58
2023-03-07T06:41:28.434Z,2.56
2023-03-07T06:43:54.937Z,2.59
2023-03-07T06:46:21.690Z,2.60
2023-03-07T06:48:48.274Z,2.58
2023-03-07T06:51:14.755Z,2.59
2023-03-07T06:53:41.274Z,2.60
2023-03-07T06:56:07.755Z,2.57
2023-03-07T06:58:34.283Z,2.58
2023-03-07T07:01:00.972Z,2.60
2023-03-07T07:03:27.497Z,2.60
2023-03-07T07:05:53.992Z,2.61
2023-03-07T07:08:20.511Z,2.61
2023-03-07T07:10:47.018Z,2.66
2023-03-07T07:13:13.648Z,2.68
2023-03-07T07:15:40.132Z,2.70
2023-03-07T07:18:06.611Z,2.73
2023-03-07T07:20:33.313Z,2.76
2023-03-07T07:22:59.856Z,2.80
2023-03-07T07:25:26.396Z,2.81
2023-03-07T07:27:52.832Z,2.84
2023-03-07T07:30:19.303Z,2.87
2023-03-07T07:32:48.801Z,2.89
2023-03-07T07:35:15.423Z,2.89
2023-03-07T07:37:41.988Z,2.93
2023-03-07T07:40:10.552Z,2.93
2023-03-07T07:42:37.508Z,2.97
2023-03-07T07:45:05.069Z,3.00
2023-03-07T07:47:31.561Z,2.98
2023-03-07T07:49:58.103Z,2.99
2023-03-07T07:52:24.598Z,3.00
2023-03-07T07:54:51.729Z,2.99
2023-03-07T07:57:18.210Z,2.98
2023-03-07T07:59:44.735Z,2.97
2023-03-07T08:02:13.755Z,2.97
2023-03-07T08:04:40.620Z,2.98
2023-03-07T08:07:07.887Z,3.00
2023-03-07T08:09:35.568Z,2.99
2023-03-07T08:12:02.387Z,3.00
2023-03-07T08:14:29.025Z,3.03
2023-03-07T08:16:55.505Z,3.07
2023-03-07T08:19:22.021Z,3.10
2023-03-07T08:21:48.464Z,3.15
2023-03-07T08:24:14.923Z,3.20
2023-03-07T08:26:41.486Z,3.21
2023-03-07T08:29:07.948Z,3.24
2023-03-07T08:31:37.502Z,3.28
2023-03-07T08:34:04.021Z,3.30
2023-03-07T08:36:30.828Z,3.37
2023-03-07T08:38:57.259Z,3.39
2023-03-07T08:41:23.917Z,3.41
2023-03-07T08:43:51.058Z,3.41
2023-03-07T08:46:17.615Z,3.41
2023-03-07T08:48:45.548Z,3.44
2023-03-07T08:51:15.721Z,3.45
2023-03-07T08:53:46.157Z,3.49
2023-03-07T08:56:15.622Z,3.46
2023-03-07T08:58:42.672Z,3.46
2023-03-07T09:01:10.233Z,3.46
2023-03-07T09:03:36.984Z,3.45
2023-03-07T09:06:04.620Z,3.44
2023-03-07T09:08:31.213Z,3.42
2023-03-07T09:11:03.543Z,3.42
2023-03-07T09:13:30.058Z,3.39
2023-03-07T09:15:56.570Z,3.36
2023-03-07T09:18:23.097Z,3.37
2023-03-07T09:20:49.600Z,3.36
2023-03-07T09:23:16.193Z,3.34
2023-03-07T09:25:44.495Z,3.36
2023-03-07T09:28:11.175Z,3.37
2023-03-07T09:30:38.090Z,3.36
2023-03-07T09:33:04.564Z,3.23
2023-03-07T09:35:31.060Z,3.03
2023-03-07T09:37:57.944Z,2.81
2023-03-07T09:40:27.055Z,2.63
2023-03-07T09:43:04.292Z,2.50
2023-03-07T09:46:04.906Z,2.43
2023-03-07T09:48:34.508Z,2.38
2023-03-07T09:51:21.630Z,2.33
2023-03-07T09:53:53.836Z,2.30
2023-03-07T09:56:44.523Z,2.24
2023-03-07T09:59:23.650Z,2.14
2023-03-07T10:02:11.802Z,2.09
2023-03-07T10:05:13.393Z,2.01
2023-03-07T10:07:39.911Z,2.03
2023-03-07T10:10:14.189Z,1.98
2023-03-07T10:13:07.663Z,1.95
2023-03-07T10:15:39.725Z,1.89
2023-03-07T10:18:22.447Z,1.90
2023-03-07T10:20:57.407Z,1.86
2023-03-07T10:24:02.060Z,1.82
2023-03-07T10:26:57.222Z,1.78
2023-03-07T10:29:27.318Z,1.77
2023-03-07T10:32:07.169Z,1.71
2023-03-07T10:34:33.745Z,1.70
2023-03-07T10:37:13.995Z,1.68
2023-03-07T10:39:46.779Z,1.68
2023-03-07T10:42:16.218Z,1.66
2023-03-07T10:44:45.205Z,1.68
2023-03-07T10:47:28.900Z,1.71
2023-03-07T10:50:03.628Z,1.72
2023-03-07T10:52:40.086Z,1.72
2023-03-07T10:55:34.655Z,1.62
2023-03-07T10:58:26.939Z,1.59
2023-03-07T11:01:01.321Z,1.58
2023-03-07T11:03:35.294Z,1.55
2023-03-07T11:06:31.092Z,1.55
2023-03-07T11:09:07.349Z,1.59
2023-03-07T11:11:33.879Z,1.59
2023-03-07T11:14:14.492Z,1.65
2023-03-07T11:16:53.830Z,1.71
2023-03-07T11:19:42.657Z,1.70
2023-03-07T11:22:27.209Z,1.65
2023-03-07T11:25:01.208Z,1.64
2023-03-07T11:27:38.885Z,1.61
2023-03-07T11:30:45.345Z,1.60
2023-03-07T11:33:21.617Z,1.61
2023-03-07T11:35:57.270Z,1.60
2023-03-07T11:38:34.486Z,1.64
2023-03-07T11:41:28.230Z,1.64
2023-03-07T11:44:16.184Z,1.63
2023-03-07T11:47:01.304Z,1.66
2023-03-07T11:50:06.451Z,1.75
2023-03-07T11:52:59.796Z,1.75
2023-03-07T11:55:29.365Z,1.71
2023-03-07T11:58:10.248Z,1.73
2023-03-07T12:01:00.731Z,1.73
2023-03-07T12:03:36.254Z,1.70
2023-03-07T12:06:33.253Z,1.67
2023-03-07T12:09:18.526Z,1.67
2023-03-07T12:12:00.172Z,1.69
2023-03-07T12:14:32.688Z,1.67
2023-03-07T12:17:21.800Z,1.59
2023-03-07T12:20:07.885Z,1.58
2023-03-07T12:23:19.201Z,1.61
2023-03-07T12:25:50.353Z,1.65
2023-03-07T12:28:30.110Z,1.67
2023-03-07T12:31:34.705Z,1.73
2023-03-07T12:34:14.131Z,1.77
2023-03-07T12:36:40.644Z,1.77
2023-03-07T12:39:29.904Z,1.80
2023-03-07T12:42:32.190Z,1.80
2023-03-07T12:45:19.906Z,1.80
2023-03-07T12:48:05.917Z,1.78
2023-03-07T12:50:35.392Z,1.81
2023-03-07T12:53:22.685Z,1.90
2023-03-07T12:56:00.543Z,1.87
2023-03-07T12:58:42.075Z,1.90
2023-03-07T13:01:21.397Z,1.87
2023-03-07T13:03:53.926Z,1.97
2023-03-07T13:06:22.895Z,2.03
2023-03-07T13:08:53.179Z,1.99
2023-03-07T13:11:22.670Z,2.10
2023-03-07T13:13:53.767Z,2.09
2023-03-07T13:16:58.911Z,2.07
2023-03-07T13:19:31.011Z,2.05
2023-03-07T13:21:58.339Z,2.04
2023-03-07T13:24:41.690Z,2.02
2023-03-07T13:27:42.002Z,2.00
2023-03-07T13:30:08.464Z,1.98
2023-03-07T13:32:54.328Z,1.94
2023-03-07T13:35:32.810Z,1.93
2023-03-07T13:38:13.261Z,1.92
2023-03-07T13:40:46.556Z,1.92
2023-03-07T13:43:18.876Z,1.90
2023-03-07T13:46:05.823Z,1.87
2023-03-07T13:48:32.317Z,1.93
2023-03-07T13:50:58.775Z,1.90
2023-03-07T13:53:35.193Z,1.81
2023-03-07T13:56:16.957Z,1.77
2023-03-07T13:58:49.687Z,1.74
2023-03-07T14:01:23.561Z,1.65
2023-03-07T14:04:24.161Z,1.72
2023-03-07T14:07:03.466Z,1.65
2023-03-07T14:09:39.912Z,1.71
2023-03-07T14:12:09.607Z,1.75
2023-03-07T14:15:13.600Z,1.76
2023-03-07T14:17:59.559Z,1.81
2023-03-07T14:20:54.477Z,1.80
2023-03-07T14:23:47.516Z,1.85
2023-03-07T14:26:24.607Z,1.87
2023-03-07T14:29:00.016Z,1.87
2023-03-07T14:31:30.877Z,1.87
2023-03-07T14:33:58.709Z,1.90
2023-03-07T14:36:30.878Z,1.88
2023-03-07T14:39:02.249Z,1.91
2023-03-07T14:42:07.226Z,1.94
2023-03-07T14:44:56.966Z,2.01
2023-03-07T14:47:42.182Z,2.03
2023-03-07T14:50:15.906Z,2.04
2023-03-07T14:52:46.200Z,2.01
2023-03-07T14:55:18.009Z,1.99
2023-03-07T14:57:49.781Z,1.98
2023-03-07T15:00:29.386Z,2.00
2023-03-07T15:03:04.459Z,1.96
2023-03-07T15:05:33.997Z,2.00
2023-03-07T15:08:00.493Z,1.96
2023-03-07T15:10:29.565Z,1.98
2023-03-07T15:12:57.476Z,1.99
2023-03-07T15:15:30.153Z,1.99
2023-03-07T15:18:03.989Z,1.92
2023-03-07T15:20:31.536Z,1.94
2023-03-07T15:23:08.260Z,1.99
2023-03-07T15:25:38.696Z,1.98
2023-03-07T15:28:21.222Z,1.99
2023-03-07T15:30:53.312Z,1.97
2023-03-07T15:33:20.202Z,1.97
2023-03-07T15:36:12.615Z,1.99
2023-03-07T15:38:53.173Z,1.99
2023-03-07T15:41:33.728Z,1.96
2023-03-07T15:44:17.511Z,1.95
2023-03-07T15:47:13.909Z,1.93
2023-03-07T15:49:50.858Z,1.90
2023-03-07T15:52:31.771Z,1.89
2023-03-07T15:55:01.038Z,1.89
2023-03-07T15:57:38.573Z,1.85
2023-03-07T16:00:06.714Z,1.80
2023-03-07T16:02:33.362Z,1.78
2023-03-07T16:05:27.848Z,1.77
2023-03-07T16:07:56.866Z,1.73
2023-03-07T16:10:29.520Z,1.71
2023-03-07T16:12:56.234Z,1.71
2023-03-07T16:15:23.930Z,1.68
2023-03-07T16:17:54.955Z,1.65
2023-03-07T16:20:27.908Z,1.61
2023-03-07T16:22:54.938Z,1.62
2023-03-07T16:25:24.258Z,1.67
2023-03-07T16:27:53.312Z,1.63
2023-03-07T16:30:24.340Z,1.62
2023-03-07T16:32:50.902Z,1.60
2023-03-07T16:35:24.360Z,1.58
2023-03-07T16:37:51.799Z,1.58
2023-03-07T16:40:19.107Z,1.54
2023-03-07T16:42:47.632Z,1.58
2023-03-07T16:45:27.471Z,1.57
2023-03-07T16:47:59.773Z,1.53
2023-03-07T16:50:31.608Z,1.53
2023-03-07T16:52:58.252Z,1.53
2023-03-07T16:55:25.968Z,1.50
2023-03-07T16:58:01.922Z,1.45
2023-03-07T17:00:28.951Z,1.23
2023-03-07T17:03:00.157Z,1.12
2023-03-07T17:05:28.562Z,1.05
2023-03-07T17:07:56.954Z,1.00
2023-03-07T17:10:26.356Z,1.02
2023-03-07T17:12:54.991Z,0.90
2023-03-07T17:15:26.260Z,0.97
2023-03-07T17:17:53.181Z,0.81
2023-03-07T17:20:20.496Z,0.79
2023-03-07T17:22:47.049Z,0.75
2023-03-07T17:25:13.828Z,0.75
2023-03-07T17:27:45.364Z,0.71
2023-03-07T17:30:22.714Z,0.72
2023-03-07T17:32:49.316Z,0.71
2023-03-07T17:35:16.070Z,0.71
2023-03-07T17:37:45.310Z,0.70
2023-03-07T17:40:13.454Z,0.76
2023-03-07T17:42:41.728Z,0.76
2023-03-07T17:45:11.264Z,0.75
2023-03-07T17:47:38.407Z,0.73
2023-03-07T17:50:06.185Z,0.68
2023-03-07T17:52:33.763Z,0.69
2023-03-07T17:55:00.754Z,0.63
2023-03-07T17:57:28.366Z,0.61
2023-03-07T17:59:58.140Z,0.61
2023-03-07T18:02:25.898Z,0.54
2023-03-07T18:04:52.580Z,0.56
2023-03-07T18:07:19.755Z,0.57
2023-03-07T18:09:48.509Z,0.59
2023-03-07T18:12:18.923Z,0.62
2023-03-07T18:14:45.414Z,0.63
2023-03-07T18:17:11.922Z,0.69
2023-03-07T18:19:39.204Z,0.69
2023-03-07T18:22:06.224Z,0.70
2023-03-07T18:24:33.900Z,0.70
2023-03-07T18:27:00.821Z,0.68
2023-03-07T18:29:28.911Z,0.68
2023-03-07T18:31:55.669Z,0.65
2023-03-07T18:34:22.319Z,0.64
2023-03-07T18:36:51.644Z,0.70
2023-03-07T18:39:22.652Z,0.67
2023-03-07T18:41:50.097Z,0.66
2023-03-07T18:44:18.526Z,0.65
2023-03-07T18:46:45.337Z,0.62
2023-03-07T18:49:11.917Z,0.62
2023-03-07T18:51:39.375Z,0.63
2023-03-07T18:54:06.000Z,0.63
2023-03-07T18:56:33.384Z,0.65
2023-03-07T18:59:00.138Z,0.66
2023-03-07T19:01:31.944Z,0.69
2023-03-07T19:04:00.699Z,0.71
2023-03-07T19:06:35.869Z,0.75
2023-03-07T19:09:03.813Z,0.75
2023-03-07T19:11:30.963Z,0.69
2023-03-07T19:13:57.700Z,0.69
2023-03-07T19:16:26.829Z,0.68
2023-03-07T19:18:54.344Z,0.68
2023-03-07T19:21:24.111Z,0.66
2023-03-07T19:23:52.449Z,0.62
2023-03-07T19:26:20.146Z,0.63
2023-03-07T19:28:48.737Z,0.65
2023-03-07T19:31:18.362Z,0.65
2023-03-07T19:33:45.827Z,0.65
2023-03-07T19:36:15.427Z,0.64
2023-03-07T19:38:42.713Z,0.65
2023-03-07T19:41:14.020Z,0.64
2023-03-07T19:43:41.049Z,0.63
2023-03-07T19:46:09.849Z,0.58
2023-03-07T19:48:38.383Z,0.57
2023-03-07T19:51:13.371Z,0.57
2023-03-07T19:53:40.008Z,0.54
2023-03-07T19:56:16.210Z,0.52
2023-03-07T19:58:42.756Z,0.49
2023-03-07T20:01:14.665Z,0.48
2023-03-07T20:03:41.115Z,0.49
2023-03-07T20:06:15.406Z,0.47
2023-03-07T20:08:41.923Z,0.46
2023-03-07T20:11:13.135Z,0.46
2023-03-07T20:13:41.293Z,0.50
2023-03-07T20:16:10.417Z,0.46
2023-03-07T20:18:38.080Z,0.45
2023-03-07T20:21:14.927Z,0.52
2023-03-07T20:23:44.572Z,0.48
2023-03-07T20:26:15.356Z,0.48
2023-03-07T20:28:42.096Z,0.49
2023-03-07T20:31:09.936Z,0.50
2023-03-07T20:33:41.697Z,0.49
2023-03-07T20:36:13.704Z,0.48
2023-03-07T20:38:40.189Z,0.50
2023-03-07T20:41:10.306Z,0.52
2023-03-07T20:43:36.812Z,0.51
2023-03-07T20:46:05.328Z,0.52
2023-03-07T20:48:31.975Z,0.52
2023-03-07T20:51:05.264Z,0.53
2023-03-07T20:53:32.296Z,0.58
2023-03-07T20:56:04.290Z,0.58
2023-03-07T20:58:32.122Z,0.57
2023-03-07T21:00:59.379Z,0.58
2023-03-07T21:03:26.717Z,0.57
2023-03-07T21:05:58.729Z,0.58
2023-03-07T21:08:26.105Z,0.55
2023-03-07T21:11:12.890Z,0.53
2023-03-07T21:13:42.024Z,0.52
2023-03-07T21:16:15.042Z,0.53
2023-03-07T21:18:41.881Z,0.48
2023-03-07T21:21:11.563Z,0.50
2023-03-07T21:23:38.324Z,0.50
2023-03-07T21:26:12.656Z,0.49
2023-03-07T21:28:39.585Z,0.49
2023-03-07T21:31:17.230Z,0.47
2023-03-07T21:33:45.827Z,0.49
2023-03-07T21:36:14.482Z,0.49
2023-03-07T21:38:44.966Z,0.45
2023-03-07T21:41:12.396Z,0.44
2023-03-07T21:43:39.097Z,0.44
2023-03-07T21:46:07.716Z,0.45
2023-03-07T21:48:34.622Z,0.46
2023-03-07T21:51:01.453Z,0.45
2023-03-07T21:53:27.978Z,0.44
2023-03-07T21:55:58.307Z,0.42
2023-03-07T21:58:25.132Z,0.43
2023-03-07T22:00:53.708Z,0.45
2023-03-07T22:03:20.735Z,0.46
2023-03-07T22:05:48.413Z,0.48
2023-03-07T22:08:16.051Z,0.46
2023-03-07T22:10:43.371Z,0.44
2023-03-07T22:13:10.184Z,0.39
2023-03-07T22:15:40.324Z,0.40
2023-03-07T22:18:09.408Z,0.38
2023-03-07T22:20:37.991Z,0.35
2023-03-07T22:23:04.496Z,0.36
2023-03-07T22:25:31.133Z,0.42
2023-03-07T22:27:57.614Z,0.44
2023-03-07T22:30:24.062Z,0.43
2023-03-07T22:32:50.593Z,0.46
2023-03-07T22:35:17.117Z,0.44
2023-03-07T22:37:46.615Z,0.44
2023-03-07T22:40:13.501Z,0.36
2023-03-07T22:42:40.069Z,0.38
2023-03-07T22:45:07.416Z,0.38
2023-03-07T22:47:34.066Z,0.32
2023-03-07T22:50:00.603Z,0.25
2023-03-07T22:52:27.044Z,0.25
2023-03-07T22:54:54.548Z,0.28
2023-03-07T22:57:24.373Z,0.26
2023-03-07T22:59:50.938Z,0.22
2023-03-07T23:02:20.085Z,0.22
2023-03-07T23:04:46.657Z,0.18
2023-03-07T23:07:13.214Z,0.17
2023-03-07T23:09:39.761Z,0.17
2023-03-07T23:12:06.705Z,0.16
2023-03-07T23:14:33.201Z,0.14
2023-03-07T23:16:59.651Z,0.13
2023-03-07T23:19:26.210Z,0.12
2023-03-07T23:21:52.735Z,0.12
2023-03-07T23:24:19.196Z,0.13
2023-03-07T23:26:45.739Z,0.18
2023-03-07T23:29:12.454Z,0.23
2023-03-07T23:31:41.163Z,0.21
2023-03-07T23:34:15.030Z,0.21
2023-03-07T23:36:41.816Z,0.20
2023-03-07T23:39:08.499Z,0.21
2023-03-07T23:41:35.016Z,0.22
2023-03-07T23:44:02.145Z,0.21
2023-03-07T23:46:29.680Z,0.20
2023-03-07T23:48:56.413Z,0.21
2023-03-07T23:51:23.772Z,0.24
2023-03-07T23:53:50.280Z,0.32
2023-03-07T23:56:17.102Z,0.34
2023-03-07T23:58:47.483Z,0.38
